Terminal Aerodrome Forecast
Issued by NWS Greer, SC

Home | Current Version | Previous Version | Text Only | Print | Product List | Glossary On
Versions: 1 2 3 4 5 6 7 8 9 10 11 12 13 14 15 16 17 18 19 20 21 22 23 24
954
FTUS42 KGSP 170540
TAFGSP
TAF
KGSP 170540Z 1706/1806 10003KT 6SM BR OVC006
      TEMPO 1707/1709 3SM BR OVC004
     FM170900 16003KT 2SM BR OVC003
      TEMPO 1709/1712 1SM BR OVC002
     FM171600 22009KT P6SM OVC003
     FM171800 22011KT P6SM OVC015
     FM172300 22010KT P6SM OVC040=

USA.gov is the U.S. government's official web portal to all federal, state and local government web resources and services.